createdAt,value
2024-02-02T00:02:21.060Z,28.98
2024-02-02T00:04:47.641Z,29.60
2024-02-02T00:07:14.218Z,28.17
2024-02-02T00:09:40.802Z,26.48
2024-02-02T00:12:12.106Z,26.42
2024-02-02T00:14:39.177Z,25.98
2024-02-02T00:17:08.623Z,30.20
2024-02-02T00:19:35.326Z,28.40
2024-02-02T00:22:02.583Z,52.50
2024-02-02T00:24:29.250Z,47.28
2024-02-02T00:26:55.846Z,29.13
2024-02-02T00:29:22.464Z,26.27
2024-02-02T00:31:49.067Z,26.98
2024-02-02T00:34:15.785Z,31.80
2024-02-02T00:36:42.827Z,25.58
2024-02-02T00:39:09.551Z,25.80
2024-02-02T00:41:36.176Z,24.63
2024-02-02T00:44:04.863Z,23.73
2024-02-02T00:46:31.861Z,23.00
2024-02-02T00:48:58.486Z,23.85
2024-02-02T00:51:25.676Z,25.58
2024-02-02T00:53:52.394Z,28.02
2024-02-02T00:56:19.081Z,28.90
2024-02-02T00:58:45.657Z,23.63
2024-02-02T01:01:12.253Z,24.20
2024-02-02T01:03:39.064Z,22.50
2024-02-02T01:06:05.843Z,21.85
2024-02-02T01:08:32.548Z,21.50
2024-02-02T01:11:01.957Z,20.95
2024-02-02T01:13:30.142Z,22.48
2024-02-02T01:15:57.612Z,23.48
2024-02-02T01:18:24.301Z,22.95
2024-02-02T01:20:50.938Z,22.05
2024-02-02T01:23:17.490Z,23.23
2024-02-02T01:25:44.125Z,21.73
2024-02-02T01:28:11.583Z,21.23
2024-02-02T01:30:38.174Z,22.63
2024-02-02T01:33:05.796Z,21.05
2024-02-02T01:35:32.483Z,22.80
2024-02-02T01:37:59.410Z,26.23
2024-02-02T01:40:26.176Z,23.17
2024-02-02T01:42:52.770Z,21.00
2024-02-02T01:45:19.463Z,20.92
2024-02-02T01:47:46.163Z,21.17
2024-02-02T01:50:13.578Z,21.77
2024-02-02T01:52:40.268Z,22.17
2024-02-02T01:55:07.599Z,20.40
2024-02-02T01:57:34.302Z,21.17
2024-02-02T02:00:02.993Z,22.00
2024-02-02T02:02:36.882Z,23.03
2024-02-02T02:05:04.612Z,20.55
2024-02-02T02:07:31.460Z,21.95
2024-02-02T02:09:58.038Z,20.42
2024-02-02T02:12:25.198Z,20.60
2024-02-02T02:14:51.807Z,20.65
2024-02-02T02:17:18.431Z,20.23
2024-02-02T02:19:48.542Z,21.73
2024-02-02T02:22:15.306Z,20.88
2024-02-02T02:24:41.878Z,18.98
2024-02-02T02:27:09.193Z,19.08
2024-02-02T02:29:35.773Z,20.10
2024-02-02T02:32:02.360Z,17.73
2024-02-02T02:34:29.184Z,16.85
2024-02-02T02:36:55.977Z,19.83
2024-02-02T02:39:22.606Z,20.67
2024-02-02T02:41:49.292Z,21.55
2024-02-02T02:44:15.928Z,20.45
2024-02-02T02:46:42.765Z,19.42
2024-02-02T02:49:09.579Z,20.65
2024-02-02T02:51:36.244Z,20.05
2024-02-02T02:54:02.879Z,19.35
2024-02-02T02:56:29.641Z,20.52
2024-02-02T02:58:56.213Z,20.08
2024-02-02T03:01:22.984Z,18.02
2024-02-02T03:03:49.619Z,19.52
2024-02-02T03:06:16.410Z,23.50
2024-02-02T03:08:43.110Z,20.05
2024-02-02T03:11:09.768Z,25.73
2024-02-02T03:13:36.359Z,23.48
2024-02-02T03:16:03.012Z,23.58
2024-02-02T03:18:29.669Z,19.65
2024-02-02T03:20:56.277Z,25.10
2024-02-02T03:23:22.842Z,21.75
2024-02-02T03:25:49.435Z,23.70
2024-02-02T03:28:16.069Z,23.30
2024-02-02T03:30:42.684Z,24.95
2024-02-02T03:33:09.443Z,21.98
2024-02-02T03:35:36.124Z,22.90
2024-02-02T03:38:02.731Z,23.00
2024-02-02T03:40:29.938Z,23.65
2024-02-02T03:42:56.515Z,22.75
2024-02-02T03:45:23.196Z,23.00
2024-02-02T03:47:49.851Z,23.52
2024-02-02T03:50:16.520Z,21.40
2024-02-02T03:52:43.101Z,21.33
2024-02-02T03:55:10.260Z,22.70
2024-02-02T03:57:36.916Z,22.80
2024-02-02T04:00:05.928Z,24.48
2024-02-02T04:02:39.371Z,22.45
2024-02-02T04:05:06.905Z,21.58
2024-02-02T04:07:33.519Z,21.27
2024-02-02T04:10:00.063Z,20.25
2024-02-02T04:12:27.484Z,20.08
2024-02-02T04:14:54.184Z,20.27
2024-02-02T04:17:20.845Z,21.67
2024-02-02T04:19:47.477Z,22.92
2024-02-02T04:22:17.910Z,24.00
2024-02-02T04:24:45.163Z,22.70
2024-02-02T04:27:11.877Z,22.08
2024-02-02T04:29:38.449Z,20.48
2024-02-02T04:32:05.179Z,22.88
2024-02-02T04:34:32.426Z,23.10
2024-02-02T04:36:59.197Z,21.85
2024-02-02T04:39:25.891Z,23.42
2024-02-02T04:41:52.562Z,22.75
2024-02-02T04:44:19.158Z,21.27
2024-02-02T04:46:45.764Z,22.15
2024-02-02T04:49:12.619Z,20.50
2024-02-02T04:51:39.350Z,19.75
2024-02-02T04:54:05.976Z,20.10
2024-02-02T04:56:32.740Z,20.60
2024-02-02T04:58:59.303Z,20.75
2024-02-02T05:01:25.892Z,22.08
2024-02-02T05:03:54.216Z,21.25
2024-02-02T05:06:20.959Z,21.77
2024-02-02T05:08:47.557Z,21.70
2024-02-02T05:11:14.228Z,20.17
2024-02-02T05:13:40.852Z,21.60
2024-02-02T05:16:08.498Z,20.75
2024-02-02T05:18:35.243Z,19.80
2024-02-02T05:21:02.636Z,20.45
2024-02-02T05:23:29.678Z,19.60
2024-02-02T05:25:56.274Z,16.85
2024-02-02T05:28:22.897Z,19.40
2024-02-02T05:30:49.862Z,21.40
2024-02-02T05:33:17.502Z,20.90
2024-02-02T05:35:44.209Z,21.27
2024-02-02T05:38:10.785Z,22.27
2024-02-02T05:40:37.334Z,21.58
2024-02-02T05:43:04.124Z,21.23
2024-02-02T05:45:30.822Z,19.45
2024-02-02T05:47:57.419Z,18.85
2024-02-02T05:50:24.036Z,19.33
2024-02-02T05:52:50.623Z,20.48
2024-02-02T05:55:17.242Z,22.33
2024-02-02T05:57:44.057Z,22.17
2024-02-02T06:00:12.195Z,22.48
2024-02-02T06:02:38.937Z,22.13
2024-02-02T06:05:06.357Z,21.33
2024-02-02T06:07:32.931Z,22.40
2024-02-02T06:09:59.496Z,21.55
2024-02-02T06:12:26.140Z,21.55
2024-02-02T06:14:52.766Z,21.67
2024-02-02T06:17:19.341Z,22.90
2024-02-02T06:19:46.072Z,22.75
2024-02-02T06:22:12.842Z,21.27
2024-02-02T06:24:39.456Z,21.95
2024-02-02T06:27:06.100Z,20.10
2024-02-02T06:29:33.993Z,20.75
2024-02-02T06:32:00.660Z,21.40
2024-02-02T06:34:27.574Z,20.30
2024-02-02T06:36:54.182Z,21.42
2024-02-02T06:39:21.185Z,22.15
2024-02-02T06:41:47.876Z,20.65
2024-02-02T06:44:14.407Z,22.33
2024-02-02T06:46:40.952Z,21.23
2024-02-02T06:49:07.827Z,22.70
2024-02-02T06:51:34.465Z,21.45
2024-02-02T06:54:02.193Z,23.08
2024-02-02T06:56:40.420Z,23.77
2024-02-02T06:59:08.937Z,22.25
2024-02-02T07:01:36.942Z,22.80
2024-02-02T07:04:07.308Z,21.40
2024-02-02T07:06:34.528Z,23.98
2024-02-02T07:09:06.837Z,24.35
2024-02-02T07:11:51.935Z,23.33
2024-02-02T07:14:44.647Z,23.10
2024-02-02T07:17:36.087Z,23.30
2024-02-02T07:20:10.174Z,24.88
2024-02-02T07:22:41.540Z,23.20
2024-02-02T07:25:19.344Z,23.73
2024-02-02T07:27:49.027Z,25.13
2024-02-02T07:30:45.107Z,25.00
2024-02-02T07:33:42.717Z,24.52
2024-02-02T07:38:57.779Z,24.70
2024-02-02T07:41:26.821Z,24.95
2024-02-02T07:43:58.435Z,24.58
2024-02-02T07:46:25.549Z,25.85
2024-02-02T07:48:54.287Z,27.88
2024-02-02T07:51:23.470Z,25.92
2024-02-02T07:53:50.515Z,25.05
2024-02-02T07:56:23.634Z,24.98
2024-02-02T07:58:50.785Z,24.15
2024-02-02T08:01:17.584Z,24.80
2024-02-02T08:03:44.337Z,25.33
2024-02-02T08:06:11.357Z,25.83
2024-02-02T08:08:38.064Z,25.98
2024-02-02T08:11:04.876Z,26.60
2024-02-02T08:13:34.450Z,23.65
2024-02-02T08:16:01.106Z,25.77
2024-02-02T08:18:29.584Z,25.92
2024-02-02T08:20:56.596Z,25.77
2024-02-02T08:23:23.295Z,24.20
2024-02-02T08:25:49.920Z,24.85
2024-02-02T08:28:16.542Z,25.48
2024-02-02T08:30:43.222Z,25.33
2024-02-02T08:33:10.167Z,24.85
2024-02-02T08:35:37.098Z,24.63
2024-02-02T08:38:07.370Z,25.85
2024-02-02T08:40:46.688Z,27.23
2024-02-02T08:43:17.132Z,24.48
2024-02-02T08:45:43.775Z,24.75
2024-02-02T08:48:25.348Z,26.13
2024-02-02T08:50:52.184Z,24.92
2024-02-02T08:53:19.268Z,25.02
2024-02-02T08:55:47.192Z,24.55
2024-02-02T08:58:30.311Z,25.20
2024-02-02T09:00:57.098Z,24.20
2024-02-02T09:03:48.483Z,24.05
2024-02-02T09:06:38.903Z,24.75
2024-02-02T09:09:06.897Z,26.23
2024-02-02T09:11:35.315Z,24.42
2024-02-02T09:14:08.905Z,23.98
2024-02-02T09:16:43.768Z,26.00
2024-02-02T09:19:29.320Z,23.80
2024-02-02T09:21:58.466Z,22.00
2024-02-02T09:24:28.001Z,22.17
2024-02-02T09:26:57.388Z,21.45
2024-02-02T09:29:24.471Z,20.83
2024-02-02T09:31:51.061Z,24.35
2024-02-02T09:34:22.957Z,25.20
2024-02-02T09:36:49.626Z,24.02
2024-02-02T09:39:19.584Z,22.02
2024-02-02T09:42:37.389Z,22.42
2024-02-02T09:45:11.108Z,24.20
2024-02-02T09:48:03.757Z,22.55
2024-02-02T09:50:42.923Z,22.35
2024-02-02T09:53:40.678Z,21.45
2024-02-02T09:56:20.919Z,21.42
2024-02-02T09:58:54.337Z,21.15
2024-02-02T10:01:38.706Z,19.92
2024-02-02T10:04:35.262Z,22.10
2024-02-02T10:07:08.456Z,21.80
2024-02-02T10:09:59.343Z,18.25
2024-02-02T10:13:11.605Z,19.90
2024-02-02T10:16:17.552Z,19.73
2024-02-02T10:19:13.127Z,19.15
2024-02-02T10:22:08.638Z,18.35
2024-02-02T10:24:48.948Z,17.83
2024-02-02T10:27:37.128Z,16.10
2024-02-02T10:30:17.831Z,17.30
2024-02-02T10:33:10.514Z,17.23
2024-02-02T10:35:53.491Z,17.50
2024-02-02T10:38:37.100Z,16.88
2024-02-02T10:41:31.632Z,17.30
2024-02-02T10:44:16.006Z,17.02
2024-02-02T10:47:04.152Z,17.15
2024-02-02T10:49:45.036Z,17.63
2024-02-02T10:52:32.707Z,18.35
2024-02-02T10:57:41.723Z,16.13
2024-02-02T11:00:11.595Z,15.68
2024-02-02T11:03:12.449Z,13.98
2024-02-02T11:05:53.608Z,13.52
2024-02-02T11:08:22.644Z,10.88
2024-02-02T11:11:00.203Z,12.50
2024-02-02T11:13:35.494Z,11.80
2024-02-02T11:16:39.540Z,12.60
2024-02-02T11:19:33.151Z,12.07
2024-02-02T11:22:26.712Z,11.25
2024-02-02T11:25:12.398Z,11.10
2024-02-02T11:28:11.993Z,11.70
2024-02-02T11:30:56.773Z,10.50
2024-02-02T11:33:48.609Z,9.50
2024-02-02T11:36:54.546Z,10.10
2024-02-02T11:39:39.921Z,10.38
2024-02-02T11:42:11.150Z,9.48
2024-02-02T11:44:39.019Z,9.70
2024-02-02T11:47:06.531Z,10.23
2024-02-02T11:49:36.836Z,8.75
2024-02-02T11:52:23.011Z,9.13
2024-02-02T11:55:05.333Z,10.73
2024-02-02T11:57:33.908Z,9.02
2024-02-02T12:00:03.350Z,9.27
2024-02-02T12:02:38.228Z,9.70
2024-02-02T12:05:25.733Z,9.40
2024-02-02T12:10:35.082Z,8.70
2024-02-02T12:13:07.564Z,8.50
2024-02-02T12:15:34.254Z,9.10
2024-02-02T12:18:03.656Z,8.63
2024-02-02T12:20:31.151Z,8.93
2024-02-02T12:22:57.778Z,8.93
2024-02-02T12:27:53.091Z,9.63
2024-02-02T12:30:19.764Z,9.45
2024-02-02T12:32:57.509Z,8.80
2024-02-02T12:35:25.376Z,8.70
2024-02-02T12:37:53.293Z,9.55
2024-02-02T12:40:24.938Z,9.02
2024-02-02T12:42:53.361Z,8.45
2024-02-02T12:45:20.356Z,8.27
2024-02-02T12:47:48.276Z,7.97
2024-02-02T12:50:19.516Z,8.75
2024-02-02T12:52:46.858Z,8.38
2024-02-02T12:55:14.112Z,7.18
2024-02-02T12:57:42.785Z,8.40
2024-02-02T13:00:16.418Z,8.18
2024-02-02T13:02:44.791Z,7.93
2024-02-02T13:05:13.499Z,7.97
2024-02-02T13:07:46.142Z,8.35
2024-02-02T13:10:13.028Z,8.65
2024-02-02T13:12:46.881Z,8.02
2024-02-02T13:15:17.251Z,7.47
2024-02-02T13:17:45.142Z,8.02
2024-02-02T13:20:15.278Z,8.50
2024-02-02T13:22:47.343Z,8.98
2024-02-02T13:25:17.756Z,8.90
2024-02-02T13:27:45.060Z,8.23
2024-02-02T13:30:21.892Z,8.65
2024-02-02T13:32:49.836Z,8.77
2024-02-02T13:35:24.071Z,8.60
2024-02-02T13:37:52.809Z,9.13
2024-02-02T13:40:23.878Z,10.30
2024-02-02T13:42:52.416Z,9.15
2024-02-02T13:45:20.745Z,9.02
2024-02-02T13:48:01.250Z,9.15
2024-02-02T13:50:38.996Z,9.02
2024-02-02T13:53:06.224Z,8.98
2024-02-02T13:55:34.761Z,8.70
2024-02-02T13:58:01.987Z,9.07
2024-02-02T14:00:32.347Z,8.80
2024-02-02T14:03:06.892Z,8.20
2024-02-02T14:05:33.595Z,8.15
2024-02-02T14:08:00.192Z,8.20
2024-02-02T14:10:30.909Z,8.20
2024-02-02T14:12:57.657Z,8.10
2024-02-02T14:15:24.647Z,8.10
2024-02-02T14:18:00.379Z,8.27
2024-02-02T14:20:27.728Z,8.73
2024-02-02T14:22:54.394Z,9.55
2024-02-02T14:25:30.687Z,8.63
2024-02-02T14:27:57.273Z,9.00
2024-02-02T14:32:54.125Z,9.40
2024-02-02T14:35:25.291Z,9.20
2024-02-02T14:37:51.819Z,9.07
2024-02-02T14:42:44.775Z,9.25
2024-02-02T14:45:12.643Z,9.98
2024-02-02T14:47:39.569Z,12.13
2024-02-02T14:50:09.239Z,9.75
2024-02-02T14:52:36.059Z,9.40
2024-02-02T14:55:02.932Z,8.43
2024-02-02T14:57:30.587Z,9.13
2024-02-02T15:02:25.362Z,8.50
2024-02-02T15:04:53.125Z,8.23
2024-02-02T15:07:22.546Z,8.48
2024-02-02T15:09:49.637Z,8.75
2024-02-02T15:12:16.156Z,9.00
2024-02-02T15:14:42.735Z,8.60
2024-02-02T15:19:35.883Z,8.30
2024-02-02T15:22:02.564Z,7.55
2024-02-02T15:24:29.243Z,7.72
2024-02-02T15:26:56.297Z,8.38
2024-02-02T15:29:23.953Z,8.23
2024-02-02T15:31:50.520Z,6.82
2024-02-02T15:34:17.325Z,8.43
2024-02-02T15:36:44.057Z,7.47
2024-02-02T15:39:23.670Z,7.45
2024-02-02T15:41:57.229Z,6.57
2024-02-02T15:44:23.733Z,8.20
2024-02-02T15:49:16.820Z,7.95
2024-02-02T15:51:43.591Z,8.13
2024-02-02T15:54:10.559Z,7.68
2024-02-02T15:56:37.202Z,7.18
2024-02-02T15:59:04.028Z,7.00
2024-02-02T16:01:31.048Z,6.43
2024-02-02T16:03:57.726Z,7.25
2024-02-02T16:06:24.447Z,7.35
2024-02-02T16:08:51.373Z,8.50
2024-02-02T16:11:20.038Z,7.72
2024-02-02T16:13:46.753Z,7.97
2024-02-02T16:16:13.313Z,9.00
2024-02-02T16:18:40.036Z,8.88
2024-02-02T16:21:06.886Z,9.73
2024-02-02T16:23:33.575Z,8.90
2024-02-02T16:26:00.401Z,8.98
2024-02-02T16:28:28.079Z,10.38
2024-02-02T16:30:54.724Z,9.27
2024-02-02T16:33:23.490Z,8.88
2024-02-02T16:35:50.311Z,8.80
2024-02-02T16:38:16.994Z,9.57
2024-02-02T16:40:43.619Z,9.57
2024-02-02T16:43:10.199Z,9.55
2024-02-02T16:45:37.365Z,10.63
2024-02-02T16:48:04.237Z,12.32
2024-02-02T16:50:31.086Z,21.02
2024-02-02T16:52:57.617Z,21.27
2024-02-02T16:55:24.333Z,18.98
2024-02-02T16:57:52.368Z,11.25
2024-02-02T17:00:19.313Z,11.43
2024-02-02T17:02:45.999Z,10.77
2024-02-02T17:05:12.737Z,9.02
2024-02-02T17:07:39.469Z,9.45
2024-02-02T17:10:06.414Z,9.65
2024-02-02T17:12:33.189Z,12.38
2024-02-02T17:14:59.801Z,11.52
2024-02-02T17:17:26.403Z,9.88
2024-02-02T17:19:52.998Z,11.02
2024-02-02T17:22:19.547Z,9.88
2024-02-02T17:24:46.175Z,10.63
2024-02-02T17:27:12.823Z,11.23
2024-02-02T17:29:42.843Z,10.18
2024-02-02T17:32:09.514Z,11.38
2024-02-02T17:34:36.228Z,10.13
2024-02-02T17:37:02.927Z,9.27
2024-02-02T17:39:30.521Z,10.05
2024-02-02T17:41:57.273Z,11.88
2024-02-02T17:44:25.838Z,10.32
2024-02-02T17:46:54.459Z,10.00
2024-02-02T17:49:21.188Z,10.35
2024-02-02T17:51:47.924Z,11.52
2024-02-02T17:54:14.576Z,13.25
2024-02-02T17:56:41.116Z,11.23
2024-02-02T17:59:07.738Z,10.55
2024-02-02T18:01:37.157Z,10.98
2024-02-02T18:04:04.240Z,11.35
2024-02-02T18:06:30.998Z,11.80
2024-02-02T18:08:57.546Z,9.32
2024-02-02T18:13:50.704Z,10.00
2024-02-02T18:16:17.240Z,10.85
2024-02-02T18:18:45.290Z,10.98
2024-02-02T18:21:12.022Z,10.90
2024-02-02T18:23:38.757Z,11.05
2024-02-02T18:26:05.729Z,11.38
2024-02-02T18:28:32.628Z,11.18
2024-02-02T18:30:59.379Z,16.33
2024-02-02T18:33:26.417Z,31.10
2024-02-02T18:35:53.128Z,17.90
2024-02-02T18:38:19.861Z,17.35
2024-02-02T18:40:48.767Z,16.75
2024-02-02T18:43:28.138Z,13.15
2024-02-02T18:45:54.774Z,12.00
2024-02-02T18:48:25.053Z,11.93
2024-02-02T18:50:51.738Z,11.20
2024-02-02T18:53:18.259Z,12.60
2024-02-02T18:55:46.199Z,11.05
2024-02-02T18:58:14.311Z,13.63
2024-02-02T19:00:40.909Z,12.18
2024-02-02T19:03:09.001Z,11.43
2024-02-02T19:05:36.846Z,11.65
2024-02-02T19:08:03.483Z,11.38
2024-02-02T19:10:29.981Z,14.77
2024-02-02T19:12:56.529Z,11.18
2024-02-02T19:15:23.918Z,10.73
2024-02-02T19:17:50.856Z,10.65
2024-02-02T19:20:17.420Z,11.13
2024-02-02T19:22:43.958Z,10.05
2024-02-02T19:25:10.456Z,11.10
2024-02-02T19:27:37.215Z,14.45
2024-02-02T19:30:04.515Z,12.30
2024-02-02T19:32:31.618Z,11.93
2024-02-02T19:34:58.499Z,11.85
2024-02-02T19:37:25.582Z,10.75
2024-02-02T19:39:52.505Z,10.48
2024-02-02T19:42:19.122Z,11.02
2024-02-02T19:44:45.731Z,10.00
2024-02-02T19:47:14.154Z,12.73
2024-02-02T19:49:41.103Z,11.52
2024-02-02T19:52:07.991Z,20.08
2024-02-02T19:54:36.781Z,11.02
2024-02-02T19:57:06.677Z,10.68
2024-02-02T19:59:33.248Z,11.15
2024-02-02T20:02:02.945Z,11.23
2024-02-02T20:04:30.767Z,10.93
2024-02-02T20:06:57.410Z,10.55
2024-02-02T20:09:24.006Z,10.38
2024-02-02T20:11:50.568Z,10.52
2024-02-02T20:14:17.886Z,10.23
2024-02-02T20:16:44.432Z,8.43
2024-02-02T20:19:11.617Z,8.50
2024-02-02T20:21:38.264Z,8.43
2024-02-02T20:24:05.553Z,9.23
2024-02-02T20:26:32.224Z,10.50
2024-02-02T20:28:58.760Z,8.63
2024-02-02T20:31:25.428Z,8.25
2024-02-02T20:33:53.012Z,7.93
2024-02-02T20:36:21.310Z,7.30
2024-02-02T20:38:48.063Z,7.25
2024-02-02T20:41:16.975Z,6.88
2024-02-02T20:43:45.770Z,7.25
2024-02-02T20:46:15.203Z,7.68
2024-02-02T20:48:41.908Z,7.97
2024-02-02T20:51:08.561Z,7.07
2024-02-02T20:53:35.124Z,8.52
2024-02-02T20:56:01.762Z,8.32
2024-02-02T20:58:28.280Z,8.43
2024-02-02T21:00:55.053Z,7.65
2024-02-02T21:03:24.320Z,6.65
2024-02-02T21:05:52.271Z,6.97
2024-02-02T21:08:18.829Z,13.27
2024-02-02T21:10:45.529Z,7.75
2024-02-02T21:13:12.041Z,7.50
2024-02-02T21:15:38.675Z,6.55
2024-02-02T21:18:11.286Z,6.13
2024-02-02T21:20:44.579Z,6.15
2024-02-02T21:23:11.675Z,6.53
2024-02-02T21:25:40.577Z,7.53
2024-02-02T21:28:07.132Z,7.00
2024-02-02T21:30:33.671Z,6.10
2024-02-02T21:33:00.300Z,5.28
2024-02-02T21:35:26.999Z,8.00
2024-02-02T21:37:53.564Z,6.25
2024-02-02T21:40:21.318Z,6.50
2024-02-02T21:42:48.601Z,7.47
2024-02-02T21:45:15.343Z,7.43
2024-02-02T21:47:41.964Z,6.35
2024-02-02T21:50:09.058Z,5.15
2024-02-02T21:52:35.753Z,5.82
2024-02-02T21:55:02.277Z,5.10
2024-02-02T21:57:28.886Z,4.80
2024-02-02T21:59:55.604Z,5.25
2024-02-02T22:02:22.090Z,8.15
2024-02-02T22:04:54.171Z,7.63
2024-02-02T22:07:21.373Z,11.32
2024-02-02T22:09:48.246Z,8.82
2024-02-02T22:12:14.925Z,26.45
2024-02-02T22:14:44.566Z,11.52
2024-02-02T22:17:11.529Z,4.97
2024-02-02T22:19:40.994Z,7.75
2024-02-02T22:22:07.918Z,6.15
2024-02-02T22:24:41.468Z,5.30
2024-02-02T22:27:08.911Z,4.53
2024-02-02T22:29:35.680Z,4.38
2024-02-02T22:32:02.235Z,4.50
2024-02-02T22:34:28.880Z,4.88
2024-02-02T22:36:55.630Z,4.63
2024-02-02T22:39:23.453Z,4.45
2024-02-02T22:41:50.122Z,5.03
2024-02-02T22:44:17.157Z,4.70
2024-02-02T22:46:43.913Z,4.43
2024-02-02T22:49:10.608Z,5.07
2024-02-02T22:51:44.148Z,4.85
2024-02-02T22:54:10.766Z,4.38
2024-02-02T22:56:37.295Z,4.45
2024-02-02T22:59:03.801Z,4.57
2024-02-02T23:18:16.312Z,4.65
2024-02-02T23:20:43.274Z,5.00
2024-02-02T23:23:09.845Z,4.50
2024-02-02T23:25:36.437Z,4.55
2024-02-02T23:28:03.642Z,4.20
2024-02-02T23:30:30.218Z,5.13
2024-02-02T23:32:56.830Z,4.43
2024-02-02T23:35:23.505Z,4.35
2024-02-02T23:37:50.197Z,4.22
2024-02-02T23:40:16.977Z,4.47
2024-02-02T23:42:43.662Z,4.35
2024-02-02T23:45:10.911Z,4.05
2024-02-02T23:47:37.628Z,5.22
2024-02-02T23:50:04.753Z,3.97
2024-02-02T23:52:31.995Z,3.78
2024-02-02T23:54:58.560Z,16.35
2024-02-02T23:57:25.890Z,20.95
2024-02-02T23:59:53.397Z,18.83
